Prior Lake, MN (55372)

8:49 PM CST on February 07, 2016 (GMT -0600)
Cardinal Ridge | | Change Station
CLOSE
Current Station
Personal Weather Station
Location: Prior Lake, MN
Elevation: 953 ft
Nearby Weather Stations
Active Advisory: Winter Weather Advisory Active Notice: Public Information Statement

Elev 953 ft 44.71 °N, 93.41 °W | Updated 20 seconds ago

Snow
Snow
22.1 °F
Feels Like 17 °F
N
3.6
Wind Variable Wind from NW
Gusts 19.7 mph

Today
High -- | Low -- °F
--% Chance of Precip.
Yesterday
High -- | Low -- °F
Precip. -- in
Pressure 29.76 in
Visibility 1.2 miles
Clouds Mostly Cloudy 1800 ft
Overcast 2300 ft
Windchill 17 °F
Dew Point 16 °F
Humidity 76%
Rainfall 0.00 in
Snow Depth Not available.
7:25 AM 5:30 PM
Waning Crescent, 0% visible
METAR KFCM 080153Z 30019G26KT 1 1/4SM -SN BKN018 OVC023 M04/M08 A2973 RMK AO2 PK WND 30031/0103 SLP077 P0000 T10441078
Pressure 29.76 in
Visibility 1.2 miles
Clouds Mostly Cloudy 1800 ft
Overcast 2300 ft
Windchill 17 °F
Dew Point 16 °F
Humidity 76%
Rainfall 0.00 in
Snow Depth Not available.
7:25 AM 5:30 PM
Waning Crescent, 0% visible
METAR KFCM 080153Z 30019G26KT 1 1/4SM -SN BKN018 OVC023 M04/M08 A2973 RMK AO2 PK WND 30031/0103 SLP077 P0000 T10441078

10-Day Weather Forecast

Almanac

Astronomy

Feb. 07, 2016 Rise Set
Actual Time
Civil Twilight
Nautical Twilight
Astronomical Twilight
Moon
Length of Visible Light
Length of Day
Tomorrow will be .
, % of the Moon is Illuminated

Today's Extremes

State Highs State Lows

Community

WunderPhotos

Upload Photos

1,891,373 photos uploaded!

WunderBlog® & News

Nearby

Air Quality

  Air Quality AQ Index Pollutant
Not available.

Snow Depth

Station Depth Elevation

Earthquake Activity

City Distance Mag. Time & Date
Minimum magnitude displayed is 2.5.

Coastal Water Temperatures

Place Temperature

Stations

Nearby Weather Stations

Station Location Temp. Windchill Dew Point Humidity Wind Precip. Elev Updated Type
                   

Watches & Warnings

Winter Weather Advisory
Issued: 8:21 PM CST Feb. 7, 2016 – National Weather Service

... Winter Weather Advisory remains in effect until noon CST
Monday...

* expect occasional light snow through Monday morning.

* Total snow accumulations of up to 1 inch are expected.

* Winds gusting as high as 40 mph will cause widespread blowing
and drifting snow.

* Plan on slippery Road conditions.

Precautionary/preparedness actions...

A Winter Weather Advisory for snow means periods of snow will
cause primarily travel difficulties. Be prepared for snow covered
roads and limited visibilities... and use caution while driving.
The latest Road conditions for the state you are calling from can
be obtained by calling 5 1 1.